aviador You're here:

KRME Decoded Metar

ROME in NY, USA
Report Time2018-01-22 11:53:00
UTC Time2018-01-22 12:01:36
Flight Rules mvfr MVFR
Wind110° at 05 kt
W.Decomp.*RWY 15: 4.5 kt HW 2.3 kt LCW
W.Rank110° ranks 1
Current wind is below 110° avg. (6.7)
Visibility9656 m
Phenomena:Mist
Clouds:Overcast 010 Hf
Expected CloudBase > 800 ft AGL from Temp-Dew spread
Ceiling1,000 ft
Temp02°C (ISA -12)
Dew Point00°C (87% RH)
AAT-1.8°C
QNH1021 hPa
Density Alt-1,138 ft
Elevation505 ft
Report Wrong Elevation
Raw Report
KRME 221153Z 11005KT 6SM BR OVC010 02/00 A3016 RMK AO2 SLP215
60000 T00170000 10022 20017 53012=

Extra information for KRME:More info

Metar Taf Metar & Taf Last 4 Metars F.Rules Stats Wind Profile Meteogram Temp Stats Airport Information Weather charts Add Link Nearby VenuesMetar ALERT Operation Metar Decoded Social comments

AIRNAV info for KRME